sensor_id;sensor_type;location;lat;lon;timestamp;pressure;altitude;pressure_sealevel;temperature;humidity
64753;BME280;61095;52.454;16.948;2022-09-27T06:12:12;98748.97;;;8.31;95.11
64753;BME280;61095;52.454;16.948;2022-09-27T06:17:11;98746.78;;;8.76;94.55
64753;BME280;61095;52.454;16.948;2022-09-27T06:22:09;98747.41;;;9.14;94.00
64753;BME280;61095;52.454;16.948;2022-09-27T06:27:08;98750.28;;;9.42;92.92
64753;BME280;61095;52.454;16.948;2022-09-27T06:32:08;98749.25;;;9.60;91.91
64753;BME280;61095;52.454;16.948;2022-09-27T06:37:06;98739.69;;;9.75;90.89
64753;BME280;61095;52.454;16.948;2022-09-27T06:42:05;98742.06;;;9.95;90.78
64753;BME280;61095;52.454;16.948;2022-09-27T06:47:04;98744.94;;;10.07;90.46
64753;BME280;61095;52.454;16.948;2022-09-27T06:52:04;98740.81;;;10.18;89.73
64753;BME280;61095;52.454;16.948;2022-09-27T06:57:03;98743.00;;;10.26;89.45
64753;BME280;61095;52.454;16.948;2022-09-27T07:02:02;98736.63;;;10.30;89.23
64753;BME280;61095;52.454;16.948;2022-09-27T07:07:00;98747.06;;;10.32;88.51
64753;BME280;61095;52.454;16.948;2022-09-27T07:12:00;98746.22;;;10.31;88.05
64753;BME280;61095;52.454;16.948;2022-09-27T07:16:59;98745.88;;;10.37;87.87
64753;BME280;61095;52.454;16.948;2022-09-27T07:21:57;98752.47;;;10.44;87.42
64753;BME280;61095;52.454;16.948;2022-09-27T07:26:56;98747.50;;;10.54;87.14
64753;BME280;61095;52.454;16.948;2022-09-27T07:31:56;98736.84;;;10.71;86.04
64753;BME280;61095;52.454;16.948;2022-09-27T07:36:57;98728.75;;;10.74;85.93
64753;BME280;61095;52.454;16.948;2022-09-27T07:41:56;98731.47;;;10.87;85.58
64753;BME280;61095;52.454;16.948;2022-09-27T07:46:56;98730.25;;;10.93;84.97
64753;BME280;61095;52.454;16.948;2022-09-27T07:51:55;98722.44;;;10.91;84.58
64753;BME280;61095;52.454;16.948;2022-09-27T07:56:53;98711.88;;;10.91;84.51
64753;BME280;61095;52.454;16.948;2022-09-27T08:01:52;98707.94;;;10.98;83.90
64753;BME280;61095;52.454;16.948;2022-09-27T08:06:54;98707.94;;;10.98;82.45
64753;BME280;61095;52.454;16.948;2022-09-27T08:11:55;98718.88;;;11.06;82.74
64753;BME280;61095;52.454;16.948;2022-09-27T08:16:54;98716.53;;;11.16;82.63
64753;BME280;61095;52.454;16.948;2022-09-27T08:21:54;98716.81;;;11.26;81.70
64753;BME280;61095;52.454;16.948;2022-09-27T08:26:52;98717.47;;;11.29;81.48
64753;BME280;61095;52.454;16.948;2022-09-27T08:31:51;98720.88;;;11.31;80.86
64753;BME280;61095;52.454;16.948;2022-09-27T08:36:50;98717.00;;;11.37;81.02
64753;BME280;61095;52.454;16.948;2022-09-27T08:41:54;98719.25;;;11.43;80.44
64753;BME280;61095;52.454;16.948;2022-09-27T08:47:01;98722.19;;;11.52;80.28
64753;BME280;61095;52.454;16.948;2022-09-27T08:52:06;98713.06;;;11.58;80.63
64753;BME280;61095;52.454;16.948;2022-09-27T08:57:10;98715.00;;;11.69;80.24
64753;BME280;61095;52.454;16.948;2022-09-27T09:02:16;98713.56;;;11.77;80.18
64753;BME280;61095;52.454;16.948;2022-09-27T09:07:30;98716.06;;;11.93;79.54
64753;BME280;61095;52.454;16.948;2022-09-27T09:12:44;98717.84;;;11.93;79.35
64753;BME280;61095;52.454;16.948;2022-09-27T09:23:38;98715.41;;;12.04;78.22
64753;BME280;61095;52.454;16.948;2022-09-27T09:28:54;98715.09;;;12.08;77.50
64753;BME280;61095;52.454;16.948;2022-09-27T09:33:59;98715.66;;;12.26;77.24
64753;BME280;61095;52.454;16.948;2022-09-27T09:39:07;98714.84;;;12.38;76.71
64753;BME280;61095;52.454;16.948;2022-09-27T09:44:15;98721.28;;;12.61;77.00
64753;BME280;61095;52.454;16.948;2022-09-27T09:49:21;98713.69;;;12.82;76.33
64753;BME280;61095;52.454;16.948;2022-09-27T09:54:25;98730.34;;;12.97;75.80
64753;BME280;61095;52.454;16.948;2022-09-27T09:59:29;98720.28;;;13.15;75.72
64753;BME280;61095;52.454;16.948;2022-09-27T10:04:33;98721.31;;;13.25;75.43
64753;BME280;61095;52.454;16.948;2022-09-27T10:09:32;98721.75;;;13.31;74.53
64753;BME280;61095;52.454;16.948;2022-09-27T10:14:32;98716.13;;;13.36;74.24
64753;BME280;61095;52.454;16.948;2022-09-27T10:19:32;98710.94;;;13.34;73.31
64753;BME280;61095;52.454;16.948;2022-09-27T10:24:52;98704.78;;;13.34;72.33
64753;BME280;61095;52.454;16.948;2022-09-27T10:29:58;98705.31;;;13.26;72.64
64753;BME280;61095;52.454;16.948;2022-09-27T10:35:19;98706.06;;;13.28;72.96
64753;BME280;61095;52.454;16.948;2022-09-27T10:40:29;98700.78;;;13.16;72.54
64753;BME280;61095;52.454;16.948;2022-09-27T10:45:32;98700.47;;;13.20;73.20
64753;BME280;61095;52.454;16.948;2022-09-27T10:50:31;98696.00;;;13.21;73.91
64753;BME280;61095;52.454;16.948;2022-09-27T10:55:34;98701.00;;;13.13;73.71
64753;BME280;61095;52.454;16.948;2022-09-27T11:00:36;98695.91;;;13.09;74.57
64753;BME280;61095;52.454;16.948;2022-09-27T11:05:36;98690.09;;;13.04;75.26
64753;BME280;61095;52.454;16.948;2022-09-27T11:10:36;98690.63;;;12.97;75.68
64753;BME280;61095;52.454;16.948;2022-09-27T11:15:47;98688.59;;;12.88;76.25
64753;BME280;61095;52.454;16.948;2022-09-27T11:20:52;98691.34;;;12.86;76.49
64753;BME280;61095;52.454;16.948;2022-09-27T11:26:07;98674.53;;;12.87;77.29
64753;BME280;61095;52.454;16.948;2022-09-27T11:31:19;98665.63;;;12.88;76.37
64753;BME280;61095;52.454;16.948;2022-09-27T11:36:36;98669.66;;;12.81;77.08
64753;BME280;61095;52.454;16.948;2022-09-27T11:41:55;98658.84;;;12.84;77.51
64753;BME280;61095;52.454;16.948;2022-09-27T11:47:10;98656.84;;;12.75;77.18
64753;BME280;61095;52.454;16.948;2022-09-27T11:52:33;98649.50;;;12.66;77.35
64753;BME280;61095;52.454;16.948;2022-09-27T11:57:38;98650.25;;;12.68;78.02
64753;BME280;61095;52.454;16.948;2022-09-27T12:08:21;98645.81;;;12.68;78.89
64753;BME280;61095;52.454;16.948;2022-09-27T12:13:27;98643.16;;;12.68;78.16
64753;BME280;61095;52.454;16.948;2022-09-27T12:18:34;98640.50;;;12.68;77.06
64753;BME280;61095;52.454;16.948;2022-09-27T12:23:39;98633.09;;;12.61;77.20
64753;BME280;61095;52.454;16.948;2022-09-27T12:28:44;98636.19;;;12.55;77.79
64753;BME280;61095;52.454;16.948;2022-09-27T12:33:50;98640.19;;;12.60;77.26
64753;BME280;61095;52.454;16.948;2022-09-27T12:38:56;98634.28;;;12.69;77.66
64753;BME280;61095;52.454;16.948;2022-09-27T12:43:59;98626.34;;;12.69;77.44
64753;BME280;61095;52.454;16.948;2022-09-27T12:49:03;98627.00;;;12.73;77.41
64753;BME280;61095;52.454;16.948;2022-09-27T12:54:21;98623.41;;;12.74;76.84
64753;BME280;61095;52.454;16.948;2022-09-27T12:59:37;98616.19;;;12.76;76.38
64753;BME280;61095;52.454;16.948;2022-09-27T13:05:06;98617.03;;;12.76;76.42
64753;BME280;61095;52.454;16.948;2022-09-27T13:10:41;98612.03;;;12.72;75.97
64753;BME280;61095;52.454;16.948;2022-09-27T13:15:45;98616.31;;;12.74;76.29
64753;BME280;61095;52.454;16.948;2022-09-27T13:20:45;98600.81;;;12.68;76.58
64753;BME280;61095;52.454;16.948;2022-09-27T13:25:47;98595.53;;;12.68;76.56
64753;BME280;61095;52.454;16.948;2022-09-27T13:30:45;98595.53;;;12.68;76.55
64753;BME280;61095;52.454;16.948;2022-09-27T13:36:05;98585.78;;;12.69;76.28
64753;BME280;61095;52.454;16.948;2022-09-27T13:41:21;98575.84;;;12.60;76.72
64753;BME280;61095;52.454;16.948;2022-09-27T13:46:23;98585.16;;;12.65;76.83
64753;BME280;61095;52.454;16.948;2022-09-27T13:51:33;98586.75;;;12.68;77.28
64753;BME280;61095;52.454;16.948;2022-09-27T13:56:50;98590.47;;;12.65;77.70
64753;BME280;61095;52.454;16.948;2022-09-27T14:01:50;98589.28;;;12.69;77.87
64753;BME280;61095;52.454;16.948;2022-09-27T14:06:54;98593.09;;;12.65;78.31
64753;BME280;61095;52.454;16.948;2022-09-27T14:11:58;98590.78;;;12.61;78.21
64753;BME280;61095;52.454;16.948;2022-09-27T14:16:58;98595.34;;;12.59;78.13
64753;BME280;61095;52.454;16.948;2022-09-27T14:21:59;98584.75;;;12.59;78.46
64753;BME280;61095;52.454;16.948;2022-09-27T14:27:09;98584.84;;;12.57;77.88
64753;BME280;61095;52.454;16.948;2022-09-27T14:32:10;98574.38;;;12.56;78.34
64753;BME280;61095;52.454;16.948;2022-09-27T14:37:24;98583.28;;;12.55;78.17
64753;BME280;61095;52.454;16.948;2022-09-27T14:42:25;98573.31;;;12.58;78.28
64753;BME280;61095;52.454;16.948;2022-09-27T14:47:26;98570.78;;;12.57;77.94
64753;BME280;61095;52.454;16.948;2022-09-27T14:52:28;98570.03;;;12.55;78.00
64753;BME280;61095;52.454;16.948;2022-09-27T14:57:30;98572.56;;;12.56;78.13
64753;BME280;61095;52.454;16.948;2022-09-27T15:02:30;98569.41;;;12.51;77.85
64753;BME280;61095;52.454;16.948;2022-09-27T15:07:31;98572.91;;;12.52;77.84
64753;BME280;61095;52.454;16.948;2022-09-27T15:12:30;98572.16;;;12.50;78.28
64753;BME280;61095;52.454;16.948;2022-09-27T15:17:40;98568.00;;;12.45;78.03
64753;BME280;61095;52.454;16.948;2022-09-27T15:22:41;98568.97;;;12.44;78.22
64753;BME280;61095;52.454;16.948;2022-09-27T15:27:46;98570.75;;;12.44;78.35
64753;BME280;61095;52.454;16.948;2022-09-27T15:32:49;98577.84;;;12.43;78.84
64753;BME280;61095;52.454;16.948;2022-09-27T15:37:51;98580.59;;;12.42;78.81
64753;BME280;61095;52.454;16.948;2022-09-27T15:42:54;98580.06;;;12.37;78.80
64753;BME280;61095;52.454;16.948;2022-09-27T15:47:54;98578.16;;;12.39;78.65
64753;BME280;61095;52.454;16.948;2022-09-27T15:52:54;98579.13;;;12.38;78.85
64753;BME280;61095;52.454;16.948;2022-09-27T15:57:55;98590.44;;;12.40;78.71
64753;BME280;61095;52.454;16.948;2022-09-27T16:02:55;98590.13;;;12.44;78.92
64753;BME280;61095;52.454;16.948;2022-09-27T16:07:55;98589.47;;;12.41;79.09
64753;BME280;61095;52.454;16.948;2022-09-27T16:12:55;98593.19;;;12.38;79.01
64753;BME280;61095;52.454;16.948;2022-09-27T16:17:53;98600.28;;;12.38;79.01
64753;BME280;61095;52.454;16.948;2022-09-27T16:22:55;98597.94;;;12.33;79.56
64753;BME280;61095;52.454;16.948;2022-09-27T16:27:56;98595.41;;;12.32;79.83
64753;BME280;61095;52.454;16.948;2022-09-27T16:32:56;98585.88;;;12.29;79.78
64753;BME280;61095;52.454;16.948;2022-09-27T16:37:56;98593.50;;;12.21;79.89
64753;BME280;61095;52.454;16.948;2022-09-27T16:42:55;98591.28;;;12.15;80.53
64753;BME280;61095;52.454;16.948;2022-09-27T16:47:53;98594.03;;;12.13;80.34
64753;BME280;61095;52.454;16.948;2022-09-27T16:52:52;98593.19;;;12.13;80.64
64753;BME280;61095;52.454;16.948;2022-09-27T16:57:56;98595.72;;;12.14;80.54
64753;BME280;61095;52.454;16.948;2022-09-27T17:02:54;98619.94;;;12.21;80.15
64753;BME280;61095;52.454;16.948;2022-09-27T17:07:53;98617.09;;;12.24;77.94
64753;BME280;61095;52.454;16.948;2022-09-27T17:12:53;98624.81;;;12.27;77.21
64753;BME280;61095;52.454;16.948;2022-09-27T17:17:53;98623.75;;;12.30;76.67
64753;BME280;61095;52.454;16.948;2022-09-27T17:22:51;98631.16;;;12.25;76.45
64753;BME280;61095;52.454;16.948;2022-09-27T17:27:50;98631.38;;;12.22;75.89
64753;BME280;61095;52.454;16.948;2022-09-27T17:32:49;98617.91;;;12.12;75.72
64753;BME280;61095;52.454;16.948;2022-09-27T17:37:48;98626.06;;;12.09;75.58
64753;BME280;61095;52.454;16.948;2022-09-27T17:42:46;98622.66;;;12.07;75.58
64753;BME280;61095;52.454;16.948;2022-09-27T17:47:45;98628.91;;;12.06;75.34
64753;BME280;61095;52.454;16.948;2022-09-27T17:53:17;98639.00;;;11.99;75.48
64753;BME280;61095;52.454;16.948;2022-09-27T17:58:15;98642.50;;;12.00;75.54
64753;BME280;61095;52.454;16.948;2022-09-27T18:03:14;98638.16;;;11.99;75.67
64753;BME280;61095;52.454;16.948;2022-09-27T18:08:12;98646.19;;;11.97;75.48
64753;BME280;61095;52.454;16.948;2022-09-27T18:13:12;98655.91;;;11.97;75.21
64753;BME280;61095;52.454;16.948;2022-09-27T18:18:11;98665.75;;;11.95;75.57
64753;BME280;61095;52.454;16.948;2022-09-27T18:23:10;98668.38;;;11.95;75.74
64753;BME280;61095;52.454;16.948;2022-09-27T18:28:08;98668.69;;;11.90;75.60
64753;BME280;61095;52.454;16.948;2022-09-27T18:33:08;98667.75;;;11.91;75.73
64753;BME280;61095;52.454;16.948;2022-09-27T18:38:07;98682.84;;;11.89;75.83
64753;BME280;61095;52.454;16.948;2022-09-27T18:43:05;98679.88;;;11.81;75.91
64753;BME280;61095;52.454;16.948;2022-09-27T18:48:04;98684.31;;;11.80;76.03
64753;BME280;61095;52.454;16.948;2022-09-27T18:53:04;98687.78;;;11.81;76.04
64753;BME280;61095;52.454;16.948;2022-09-27T18:58:04;98679.03;;;11.80;76.28
64753;BME280;61095;52.454;16.948;2022-09-27T19:03:03;98689.59;;;11.80;76.08
64753;BME280;61095;52.454;16.948;2022-09-27T19:08:03;98691.69;;;11.75;76.00
64753;BME280;61095;52.454;16.948;2022-09-27T19:13:02;98689.78;;;11.77;76.07
64753;BME280;61095;52.454;16.948;2022-09-27T19:18:17;98697.06;;;11.74;75.95
64753;BME280;61095;52.454;16.948;2022-09-27T19:23:17;98694.63;;;11.71;76.15
64753;BME280;61095;52.454;16.948;2022-09-27T19:28:19;98697.25;;;11.71;76.21
64753;BME280;61095;52.454;16.948;2022-09-27T19:33:18;98701.81;;;11.69;76.41
64753;BME280;61095;52.454;16.948;2022-09-27T19:38:17;98706.22;;;11.68;76.35
64753;BME280;61095;52.454;16.948;2022-09-27T19:43:16;98707.19;;;11.67;76.49
64753;BME280;61095;52.454;16.948;2022-09-27T19:48:14;98719.63;;;11.65;76.45
64753;BME280;61095;52.454;16.948;2022-09-27T19:53:13;98718.25;;;11.60;76.58
64753;BME280;61095;52.454;16.948;2022-09-27T19:58:13;98718.34;;;11.58;76.46
64753;BME280;61095;52.454;16.948;2022-09-27T20:03:11;98713.72;;;11.62;76.28
64753;BME280;61095;52.454;16.948;2022-09-27T20:08:10;98720.13;;;11.58;76.36
64753;BME280;61095;52.454;16.948;2022-09-27T20:13:08;98730.69;;;11.58;76.74
64753;BME280;61095;52.454;16.948;2022-09-27T20:18:08;98720.13;;;11.58;76.56
64753;BME280;61095;52.454;16.948;2022-09-27T20:23:08;98718.34;;;11.58;76.26
64753;BME280;61095;52.454;16.948;2022-09-27T20:28:07;98718.13;;;11.61;76.25
64753;BME280;61095;52.454;16.948;2022-09-27T20:33:05;98717.28;;;11.61;76.42
64753;BME280;61095;52.454;16.948;2022-09-27T20:38:22;98724.47;;;11.59;76.25
64753;BME280;61095;52.454;16.948;2022-09-27T20:43:21;98720.03;;;11.59;76.16
64753;BME280;61095;52.454;16.948;2022-09-27T20:48:22;98721.72;;;11.60;76.50
64753;BME280;61095;52.454;16.948;2022-09-27T20:53:25;98724.47;;;11.59;76.56
64753;BME280;61095;52.454;16.948;2022-09-27T20:58:24;98726.47;;;11.55;76.59
64753;BME280;61095;52.454;16.948;2022-09-27T21:03:23;98725.59;;;11.55;76.75
64753;BME280;61095;52.454;16.948;2022-09-27T21:08:24;98727.47;;;11.52;76.71
64753;BME280;61095;52.454;16.948;2022-09-27T21:13:22;98720.38;;;11.53;76.39
64753;BME280;61095;52.454;16.948;2022-09-27T21:18:21;98721.81;;;11.59;76.20
64753;BME280;61095;52.454;16.948;2022-09-27T21:23:19;98727.22;;;11.57;76.59
64753;BME280;61095;52.454;16.948;2022-09-27T21:28:19;98731.75;;;11.55;76.64
64753;BME280;61095;52.454;16.948;2022-09-27T21:33:18;98739.06;;;11.50;76.78
64753;BME280;61095;52.454;16.948;2022-09-27T21:38:16;98737.38;;;11.49;76.68
64753;BME280;61095;52.454;16.948;2022-09-27T21:43:14;98747.25;;;11.45;76.57
64753;BME280;61095;52.454;16.948;2022-09-27T21:48:14;98736.03;;;11.42;76.21
64753;BME280;61095;52.454;16.948;2022-09-27T21:53:13;98735.38;;;11.38;76.63
64753;BME280;61095;52.454;16.948;2022-09-27T21:58:11;98740.00;;;11.35;76.24
64753;BME280;61095;52.454;16.948;2022-09-27T22:03:10;98744.81;;;11.28;76.47
64753;BME280;61095;52.454;16.948;2022-09-27T22:08:09;98752.94;;;11.25;76.45
64753;BME280;61095;52.454;16.948;2022-09-27T22:13:08;98743.59;;;11.19;76.71
64753;BME280;61095;52.454;16.948;2022-09-27T22:18:06;98740.38;;;11.14;76.71
64753;BME280;61095;52.454;16.948;2022-09-27T22:23:05;98738.97;;;11.09;76.21
64753;BME280;61095;52.454;16.948;2022-09-27T22:28:05;98740.25;;;11.02;76.33
64753;BME280;61095;52.454;16.948;2022-09-27T22:33:04;98749.13;;;11.01;76.57
64753;BME280;61095;52.454;16.948;2022-09-27T22:38:02;98740.72;;;10.94;76.25
64753;BME280;61095;52.454;16.948;2022-09-27T22:43:01;98748.72;;;10.93;76.46
64753;BME280;61095;52.454;16.948;2022-09-27T22:48:01;98748.81;;;10.91;76.41
64753;BME280;61095;52.454;16.948;2022-09-27T22:52:59;98746.19;;;10.91;76.02
64753;BME280;61095;52.454;16.948;2022-09-27T22:57:58;98749.69;;;10.91;75.94
64753;BME280;61095;52.454;16.948;2022-09-27T23:02:57;98752.59;;;10.87;75.80
64753;BME280;61095;52.454;16.948;2022-09-27T23:07:57;98752.78;;;10.84;75.59
64753;BME280;61095;52.454;16.948;2022-09-27T23:12:55;98753.91;;;10.80;75.85
64753;BME280;61095;52.454;16.948;2022-09-27T23:17:54;98760.31;;;10.76;75.62
64753;BME280;61095;52.454;16.948;2022-09-27T23:22:53;98761.34;;;10.73;75.44
64753;BME280;61095;52.454;16.948;2022-09-27T23:27:52;98753.03;;;10.65;75.37
64753;BME280;61095;52.454;16.948;2022-09-27T23:32:51;98762.22;;;10.58;75.35
64753;BME280;61095;52.454;16.948;2022-09-27T23:37:52;98761.81;;;10.50;75.37
64753;BME280;61095;52.454;16.948;2022-09-27T23:42:53;98756.22;;;10.40;75.16
64753;BME280;61095;52.454;16.948;2022-09-27T23:47:51;98743.31;;;10.36;75.32
64753;BME280;61095;52.454;16.948;2022-09-27T23:52:53;98739.34;;;10.28;75.17
64753;BME280;61095;52.454;16.948;2022-09-27T23:57:53;98729.06;;;10.24;75.03
